aviador You're here:

KMIS Decoded Metar

MISSION in SD, USA
Report Time2017-08-20 19:00:00
UTC Time2017-08-20 19:04:19
Flight Rules vfr VFR
WindVRB at 04 kt
Visibility9999 m
Phenomena:N/A
Clouds:N/A
Expected CloudBase > 2,800 ft AGL from Temp-Dew spread
CeilingNone
Temp32°C (ISA +22)
Dew Point25°C (67% RH)
Heat Index39.3°C
QNH1018 hPa
Density Alt5,367 ft
Elevation2,589 ft
Report Wrong Elevation
Raw Report
KMIS 201900Z AUTO VRB04KT 10SM CLR 32/25 A3005 RMK A01=

Extra information for KMIS:More info

Metar Taf Metar & Taf Last 4 Metars F.Rules Stats Wind Profile Meteogram Temp Stats Airport Information Weather charts Add Link Nearby VenuesMetar ALERT Operation Metar Decoded Social comments

AIRNAV info for KMIS